sensor_id;sensor_type;location;lat;lon;timestamp;temperature;humidity
17128;DHT22;8679;50.842;4.322;2023-07-24T00:01:31;18.10;99.90
17128;DHT22;8679;50.842;4.322;2023-07-24T00:03:56;18.10;99.90
17128;DHT22;8679;50.842;4.322;2023-07-24T00:06:23;18.20;99.90
17128;DHT22;8679;50.842;4.322;2023-07-24T00:08:49;18.20;99.90
17128;DHT22;8679;50.842;4.322;2023-07-24T00:11:15;18.10;99.90
17128;DHT22;8679;50.842;4.322;2023-07-24T00:13:40;18.10;99.90
17128;DHT22;8679;50.842;4.322;2023-07-24T00:16:08;18.20;99.90
17128;DHT22;8679;50.842;4.322;2023-07-24T00:18:34;18.20;99.90
17128;DHT22;8679;50.842;4.322;2023-07-24T00:20:59;18.20;99.90
17128;DHT22;8679;50.842;4.322;2023-07-24T00:23:25;18.20;99.90
17128;DHT22;8679;50.842;4.322;2023-07-24T00:25:51;18.20;99.90
17128;DHT22;8679;50.842;4.322;2023-07-24T00:28:16;18.20;99.90
17128;DHT22;8679;50.842;4.322;2023-07-24T00:30:42;18.30;99.90
17128;DHT22;8679;50.842;4.322;2023-07-24T00:33:08;18.30;99.90
17128;DHT22;8679;50.842;4.322;2023-07-24T00:35:34;18.40;99.90
17128;DHT22;8679;50.842;4.322;2023-07-24T00:38:00;18.40;99.90
17128;DHT22;8679;50.842;4.322;2023-07-24T00:40:25;18.40;99.90
17128;DHT22;8679;50.842;4.322;2023-07-24T00:42:51;18.40;99.90
17128;DHT22;8679;50.842;4.322;2023-07-24T00:45:17;18.40;99.90
17128;DHT22;8679;50.842;4.322;2023-07-24T00:47:43;18.40;99.90
17128;DHT22;8679;50.842;4.322;2023-07-24T00:50:10;18.40;99.90
17128;DHT22;8679;50.842;4.322;2023-07-24T00:52:37;18.50;99.90
17128;DHT22;8679;50.842;4.322;2023-07-24T00:55:03;18.50;99.90
17128;DHT22;8679;50.842;4.322;2023-07-24T00:57:29;18.50;99.90
17128;DHT22;8679;50.842;4.322;2023-07-24T00:59:55;18.50;99.90
17128;DHT22;8679;50.842;4.322;2023-07-24T01:02:20;18.50;99.90
17128;DHT22;8679;50.842;4.322;2023-07-24T01:04:47;18.50;99.90
17128;DHT22;8679;50.842;4.322;2023-07-24T01:07:12;18.60;99.90
17128;DHT22;8679;50.842;4.322;2023-07-24T01:09:38;18.50;99.90
17128;DHT22;8679;50.842;4.322;2023-07-24T01:12:12;18.50;99.90
17128;DHT22;8679;50.842;4.322;2023-07-24T01:17:48;18.50;99.90
17128;DHT22;8679;50.842;4.322;2023-07-24T01:20:15;18.50;99.90
17128;DHT22;8679;50.842;4.322;2023-07-24T01:25:34;18.50;99.90
17128;DHT22;8679;50.842;4.322;2023-07-24T01:28:01;18.50;99.90
17128;DHT22;8679;50.842;4.322;2023-07-24T01:30:27;18.50;99.90
17128;DHT22;8679;50.842;4.322;2023-07-24T01:32:52;18.50;99.90
17128;DHT22;8679;50.842;4.322;2023-07-24T01:35:18;18.50;99.90
17128;DHT22;8679;50.842;4.322;2023-07-24T01:37:46;18.50;99.90
17128;DHT22;8679;50.842;4.322;2023-07-24T01:40:12;18.50;99.90
17128;DHT22;8679;50.842;4.322;2023-07-24T01:42:38;18.50;99.90
17128;DHT22;8679;50.842;4.322;2023-07-24T01:45:05;18.50;99.90
17128;DHT22;8679;50.842;4.322;2023-07-24T01:47:30;18.40;99.90
17128;DHT22;8679;50.842;4.322;2023-07-24T01:49:56;18.30;99.90
17128;DHT22;8679;50.842;4.322;2023-07-24T01:52:22;18.30;99.90
17128;DHT22;8679;50.842;4.322;2023-07-24T01:54:48;18.20;99.90
17128;DHT22;8679;50.842;4.322;2023-07-24T01:57:13;18.10;99.90
17128;DHT22;8679;50.842;4.322;2023-07-24T01:59:39;18.10;99.90
17128;DHT22;8679;50.842;4.322;2023-07-24T02:02:05;18.10;99.90
17128;DHT22;8679;50.842;4.322;2023-07-24T02:04:31;18.10;99.90
17128;DHT22;8679;50.842;4.322;2023-07-24T02:06:56;18.00;99.90
17128;DHT22;8679;50.842;4.322;2023-07-24T02:09:22;18.00;99.90
17128;DHT22;8679;50.842;4.322;2023-07-24T02:11:47;18.00;99.90
17128;DHT22;8679;50.842;4.322;2023-07-24T02:14:14;18.00;99.90
17128;DHT22;8679;50.842;4.322;2023-07-24T02:16:42;18.00;99.90
17128;DHT22;8679;50.842;4.322;2023-07-24T02:19:07;18.00;99.90
17128;DHT22;8679;50.842;4.322;2023-07-24T02:21:33;17.90;99.90
17128;DHT22;8679;50.842;4.322;2023-07-24T02:23:59;17.90;99.90
17128;DHT22;8679;50.842;4.322;2023-07-24T02:26:24;17.90;99.90
17128;DHT22;8679;50.842;4.322;2023-07-24T02:28:50;17.90;99.90
17128;DHT22;8679;50.842;4.322;2023-07-24T02:31:15;17.90;99.90
17128;DHT22;8679;50.842;4.322;2023-07-24T02:33:41;17.90;99.90
17128;DHT22;8679;50.842;4.322;2023-07-24T02:36:07;17.80;99.90
17128;DHT22;8679;50.842;4.322;2023-07-24T02:38:33;17.90;99.90
17128;DHT22;8679;50.842;4.322;2023-07-24T02:40:58;17.90;99.90
17128;DHT22;8679;50.842;4.322;2023-07-24T02:43:24;17.80;99.90
17128;DHT22;8679;50.842;4.322;2023-07-24T02:45:50;17.80;99.90
17128;DHT22;8679;50.842;4.322;2023-07-24T02:48:15;17.80;99.90
17128;DHT22;8679;50.842;4.322;2023-07-24T02:50:41;17.80;99.90
17128;DHT22;8679;50.842;4.322;2023-07-24T02:53:07;17.80;99.90
17128;DHT22;8679;50.842;4.322;2023-07-24T02:55:32;17.80;99.90
17128;DHT22;8679;50.842;4.322;2023-07-24T02:57:58;17.90;99.90
17128;DHT22;8679;50.842;4.322;2023-07-24T03:00:24;17.70;99.90
17128;DHT22;8679;50.842;4.322;2023-07-24T03:02:51;17.70;99.90
17128;DHT22;8679;50.842;4.322;2023-07-24T03:05:17;17.60;99.90
17128;DHT22;8679;50.842;4.322;2023-07-24T03:07:43;17.60;99.90
17128;DHT22;8679;50.842;4.322;2023-07-24T03:10:09;17.60;99.90
17128;DHT22;8679;50.842;4.322;2023-07-24T03:12:35;17.50;99.90
17128;DHT22;8679;50.842;4.322;2023-07-24T03:15:01;17.50;99.90
17128;DHT22;8679;50.842;4.322;2023-07-24T03:17:26;17.50;99.90
17128;DHT22;8679;50.842;4.322;2023-07-24T03:19:54;17.40;99.90
17128;DHT22;8679;50.842;4.322;2023-07-24T03:22:20;17.40;99.90
17128;DHT22;8679;50.842;4.322;2023-07-24T03:24:46;17.40;99.90
17128;DHT22;8679;50.842;4.322;2023-07-24T03:27:11;17.40;99.90
17128;DHT22;8679;50.842;4.322;2023-07-24T03:29:37;17.30;99.90
17128;DHT22;8679;50.842;4.322;2023-07-24T03:32:04;17.30;99.90
17128;DHT22;8679;50.842;4.322;2023-07-24T03:34:30;17.20;99.90
17128;DHT22;8679;50.842;4.322;2023-07-24T03:36:56;17.20;99.90
17128;DHT22;8679;50.842;4.322;2023-07-24T03:39:21;17.20;99.90
17128;DHT22;8679;50.842;4.322;2023-07-24T03:41:47;17.20;99.90
17128;DHT22;8679;50.842;4.322;2023-07-24T03:44:13;17.10;99.90
17128;DHT22;8679;50.842;4.322;2023-07-24T03:46:38;17.10;99.90
17128;DHT22;8679;50.842;4.322;2023-07-24T03:49:04;17.10;99.90
17128;DHT22;8679;50.842;4.322;2023-07-24T03:51:30;17.10;99.90
17128;DHT22;8679;50.842;4.322;2023-07-24T03:53:55;17.10;99.90
17128;DHT22;8679;50.842;4.322;2023-07-24T03:56:21;17.00;99.90
17128;DHT22;8679;50.842;4.322;2023-07-24T03:58:46;17.00;99.90
17128;DHT22;8679;50.842;4.322;2023-07-24T04:01:12;17.00;99.90
17128;DHT22;8679;50.842;4.322;2023-07-24T04:03:38;17.00;99.90
17128;DHT22;8679;50.842;4.322;2023-07-24T04:06:03;17.00;99.90
17128;DHT22;8679;50.842;4.322;2023-07-24T04:08:29;17.00;99.90
17128;DHT22;8679;50.842;4.322;2023-07-24T04:10:55;17.00;99.90
17128;DHT22;8679;50.842;4.322;2023-07-24T04:13:23;16.90;99.90
17128;DHT22;8679;50.842;4.322;2023-07-24T04:15:49;17.00;99.90
17128;DHT22;8679;50.842;4.322;2023-07-24T04:18:15;16.90;99.90
17128;DHT22;8679;50.842;4.322;2023-07-24T04:20:41;16.90;99.90
17128;DHT22;8679;50.842;4.322;2023-07-24T04:23:07;16.90;99.90
17128;DHT22;8679;50.842;4.322;2023-07-24T04:25:32;16.90;99.90
17128;DHT22;8679;50.842;4.322;2023-07-24T04:27:58;16.90;99.90
17128;DHT22;8679;50.842;4.322;2023-07-24T04:30:23;16.90;99.90
17128;DHT22;8679;50.842;4.322;2023-07-24T04:32:49;16.90;99.90
17128;DHT22;8679;50.842;4.322;2023-07-24T04:35:16;16.90;99.90
17128;DHT22;8679;50.842;4.322;2023-07-24T04:37:41;16.90;99.90
17128;DHT22;8679;50.842;4.322;2023-07-24T04:40:07;16.90;99.90
17128;DHT22;8679;50.842;4.322;2023-07-24T04:42:33;16.90;99.90
17128;DHT22;8679;50.842;4.322;2023-07-24T04:44:59;16.90;99.90
17128;DHT22;8679;50.842;4.322;2023-07-24T04:47:24;16.90;99.90
17128;DHT22;8679;50.842;4.322;2023-07-24T04:49:50;16.90;99.90
17128;DHT22;8679;50.842;4.322;2023-07-24T04:52:16;16.90;99.90
17128;DHT22;8679;50.842;4.322;2023-07-24T04:54:41;16.90;99.90
17128;DHT22;8679;50.842;4.322;2023-07-24T04:57:07;17.00;99.90
17128;DHT22;8679;50.842;4.322;2023-07-24T04:59:32;17.00;99.90
17128;DHT22;8679;50.842;4.322;2023-07-24T05:01:58;17.00;99.90
17128;DHT22;8679;50.842;4.322;2023-07-24T05:04:24;17.00;99.90
17128;DHT22;8679;50.842;4.322;2023-07-24T05:06:49;17.00;99.90
17128;DHT22;8679;50.842;4.322;2023-07-24T05:09:15;17.00;99.90
17128;DHT22;8679;50.842;4.322;2023-07-24T05:11:41;17.00;99.90
17128;DHT22;8679;50.842;4.322;2023-07-24T05:14:10;17.00;99.90
17128;DHT22;8679;50.842;4.322;2023-07-24T05:16:35;16.90;99.90
17128;DHT22;8679;50.842;4.322;2023-07-24T05:19:01;16.90;99.90
17128;DHT22;8679;50.842;4.322;2023-07-24T05:21:27;16.90;99.90
17128;DHT22;8679;50.842;4.322;2023-07-24T05:23:52;17.00;99.90
17128;DHT22;8679;50.842;4.322;2023-07-24T05:26:18;16.90;99.90
17128;DHT22;8679;50.842;4.322;2023-07-24T05:28:44;17.00;99.90
17128;DHT22;8679;50.842;4.322;2023-07-24T05:31:09;17.00;99.90
17128;DHT22;8679;50.842;4.322;2023-07-24T05:33:35;17.10;99.90
17128;DHT22;8679;50.842;4.322;2023-07-24T05:36:02;17.20;99.90
17128;DHT22;8679;50.842;4.322;2023-07-24T05:38:28;17.20;99.90
17128;DHT22;8679;50.842;4.322;2023-07-24T05:41:02;17.20;99.90
17128;DHT22;8679;50.842;4.322;2023-07-24T05:43:29;17.30;99.90
17128;DHT22;8679;50.842;4.322;2023-07-24T05:45:56;17.30;99.90
17128;DHT22;8679;50.842;4.322;2023-07-24T05:48:23;17.20;99.90
17128;DHT22;8679;50.842;4.322;2023-07-24T05:50:49;17.20;99.90
17128;DHT22;8679;50.842;4.322;2023-07-24T05:53:15;17.30;99.90
17128;DHT22;8679;50.842;4.322;2023-07-24T05:55:41;17.30;99.90
17128;DHT22;8679;50.842;4.322;2023-07-24T05:58:08;17.30;99.90
17128;DHT22;8679;50.842;4.322;2023-07-24T06:00:34;17.40;99.90
17128;DHT22;8679;50.842;4.322;2023-07-24T06:03:00;17.40;99.90
17128;DHT22;8679;50.842;4.322;2023-07-24T06:05:26;17.40;99.90
17128;DHT22;8679;50.842;4.322;2023-07-24T06:07:52;17.50;99.90
17128;DHT22;8679;50.842;4.322;2023-07-24T06:10:17;17.50;99.90
17128;DHT22;8679;50.842;4.322;2023-07-24T06:12:43;17.50;99.90
17128;DHT22;8679;50.842;4.322;2023-07-24T06:15:09;17.50;99.90
17128;DHT22;8679;50.842;4.322;2023-07-24T06:17:35;17.50;99.90
17128;DHT22;8679;50.842;4.322;2023-07-24T06:20:00;17.50;99.90
17128;DHT22;8679;50.842;4.322;2023-07-24T06:22:26;17.60;99.90
17128;DHT22;8679;50.842;4.322;2023-07-24T06:24:51;17.70;99.90
17128;DHT22;8679;50.842;4.322;2023-07-24T06:27:17;17.70;99.90
17128;DHT22;8679;50.842;4.322;2023-07-24T06:29:43;17.70;99.90
17128;DHT22;8679;50.842;4.322;2023-07-24T06:32:08;17.70;99.90
17128;DHT22;8679;50.842;4.322;2023-07-24T06:34:34;17.60;99.90
17128;DHT22;8679;50.842;4.322;2023-07-24T06:37:00;17.60;99.90
17128;DHT22;8679;50.842;4.322;2023-07-24T06:39:25;17.70;99.90
17128;DHT22;8679;50.842;4.322;2023-07-24T06:41:55;17.70;99.90
17128;DHT22;8679;50.842;4.322;2023-07-24T06:44:21;17.80;99.90
17128;DHT22;8679;50.842;4.322;2023-07-24T06:46:47;17.80;99.90
17128;DHT22;8679;50.842;4.322;2023-07-24T06:49:13;17.80;99.90
17128;DHT22;8679;50.842;4.322;2023-07-24T06:51:38;17.90;99.90
17128;DHT22;8679;50.842;4.322;2023-07-24T06:54:05;18.00;99.90
17128;DHT22;8679;50.842;4.322;2023-07-24T06:56:31;18.10;99.90
17128;DHT22;8679;50.842;4.322;2023-07-24T06:58:57;18.10;99.90
17128;DHT22;8679;50.842;4.322;2023-07-24T07:01:23;18.10;99.90
17128;DHT22;8679;50.842;4.322;2023-07-24T07:03:48;18.20;99.90
17128;DHT22;8679;50.842;4.322;2023-07-24T07:06:14;18.20;99.90
17128;DHT22;8679;50.842;4.322;2023-07-24T07:08:40;18.20;99.90
17128;DHT22;8679;50.842;4.322;2023-07-24T07:11:06;18.20;99.90
17128;DHT22;8679;50.842;4.322;2023-07-24T07:13:31;18.20;99.90
17128;DHT22;8679;50.842;4.322;2023-07-24T07:15:57;18.20;99.90
17128;DHT22;8679;50.842;4.322;2023-07-24T07:18:23;18.20;99.90
17128;DHT22;8679;50.842;4.322;2023-07-24T07:20:50;18.20;99.90
17128;DHT22;8679;50.842;4.322;2023-07-24T07:23:16;18.10;99.90
17128;DHT22;8679;50.842;4.322;2023-07-24T07:25:42;18.20;99.90
17128;DHT22;8679;50.842;4.322;2023-07-24T07:28:14;18.30;99.90
17128;DHT22;8679;50.842;4.322;2023-07-24T07:30:41;18.30;99.90
17128;DHT22;8679;50.842;4.322;2023-07-24T07:33:07;18.30;99.90
17128;DHT22;8679;50.842;4.322;2023-07-24T07:35:35;18.30;99.90
17128;DHT22;8679;50.842;4.322;2023-07-24T07:38:02;18.20;99.90
17128;DHT22;8679;50.842;4.322;2023-07-24T07:40:28;18.30;99.90
17128;DHT22;8679;50.842;4.322;2023-07-24T07:42:54;18.40;99.90
17128;DHT22;8679;50.842;4.322;2023-07-24T07:45:21;18.50;99.90
17128;DHT22;8679;50.842;4.322;2023-07-24T07:47:46;18.50;99.90
17128;DHT22;8679;50.842;4.322;2023-07-24T07:50:12;18.50;99.90
17128;DHT22;8679;50.842;4.322;2023-07-24T07:52:38;18.50;99.90
17128;DHT22;8679;50.842;4.322;2023-07-24T07:55:04;18.50;99.90
17128;DHT22;8679;50.842;4.322;2023-07-24T07:57:33;18.50;99.90
17128;DHT22;8679;50.842;4.322;2023-07-24T07:59:59;18.60;99.90
17128;DHT22;8679;50.842;4.322;2023-07-24T08:02:25;18.60;99.90
17128;DHT22;8679;50.842;4.322;2023-07-24T08:04:50;18.70;99.90
17128;DHT22;8679;50.842;4.322;2023-07-24T08:07:16;18.70;99.90
17128;DHT22;8679;50.842;4.322;2023-07-24T08:09:42;18.60;99.90
17128;DHT22;8679;50.842;4.322;2023-07-24T08:12:07;18.60;99.90
17128;DHT22;8679;50.842;4.322;2023-07-24T08:14:33;18.50;99.90
17128;DHT22;8679;50.842;4.322;2023-07-24T08:16:59;18.50;99.90
17128;DHT22;8679;50.842;4.322;2023-07-24T08:19:28;18.50;99.90
17128;DHT22;8679;50.842;4.322;2023-07-24T08:21:53;18.50;99.90
17128;DHT22;8679;50.842;4.322;2023-07-24T08:24:19;18.40;99.90
17128;DHT22;8679;50.842;4.322;2023-07-24T08:26:45;18.30;99.90
17128;DHT22;8679;50.842;4.322;2023-07-24T08:29:10;18.30;99.90
17128;DHT22;8679;50.842;4.322;2023-07-24T08:31:36;18.30;99.90
17128;DHT22;8679;50.842;4.322;2023-07-24T08:34:01;18.20;99.90
17128;DHT22;8679;50.842;4.322;2023-07-24T08:36:27;18.30;99.90
17128;DHT22;8679;50.842;4.322;2023-07-24T08:38:53;18.40;99.90
17128;DHT22;8679;50.842;4.322;2023-07-24T08:41:18;18.50;99.90
17128;DHT22;8679;50.842;4.322;2023-07-24T08:43:44;18.50;99.90
17128;DHT22;8679;50.842;4.322;2023-07-24T08:46:10;18.40;99.90
17128;DHT22;8679;50.842;4.322;2023-07-24T08:48:37;18.40;99.90
17128;DHT22;8679;50.842;4.322;2023-07-24T08:51:07;18.30;99.90
17128;DHT22;8679;50.842;4.322;2023-07-24T08:53:34;18.20;99.90
17128;DHT22;8679;50.842;4.322;2023-07-24T08:56:03;18.20;99.90
17128;DHT22;8679;50.842;4.322;2023-07-24T08:58:28;18.10;99.90
17128;DHT22;8679;50.842;4.322;2023-07-24T09:00:56;18.00;99.90
17128;DHT22;8679;50.842;4.322;2023-07-24T09:03:22;18.00;99.90
17128;DHT22;8679;50.842;4.322;2023-07-24T09:05:48;18.00;99.90
17128;DHT22;8679;50.842;4.322;2023-07-24T09:08:13;18.00;99.90
17128;DHT22;8679;50.842;4.322;2023-07-24T09:10:39;18.00;99.90
17128;DHT22;8679;50.842;4.322;2023-07-24T09:13:05;18.00;99.90
17128;DHT22;8679;50.842;4.322;2023-07-24T09:15:43;18.00;99.90
17128;DHT22;8679;50.842;4.322;2023-07-24T09:18:10;18.00;99.90
17128;DHT22;8679;50.842;4.322;2023-07-24T09:20:42;18.00;99.90
17128;DHT22;8679;50.842;4.322;2023-07-24T09:23:09;18.00;99.90
17128;DHT22;8679;50.842;4.322;2023-07-24T09:25:36;18.10;99.90
17128;DHT22;8679;50.842;4.322;2023-07-24T09:28:10;18.10;99.90
17128;DHT22;8679;50.842;4.322;2023-07-24T09:30:36;18.10;99.90
17128;DHT22;8679;50.842;4.322;2023-07-24T09:33:02;18.10;99.90
17128;DHT22;8679;50.842;4.322;2023-07-24T09:35:28;18.10;99.90
17128;DHT22;8679;50.842;4.322;2023-07-24T09:38:08;18.10;99.90
17128;DHT22;8679;50.842;4.322;2023-07-24T09:40:38;18.10;99.90
17128;DHT22;8679;50.842;4.322;2023-07-24T09:43:26;18.10;99.90
17128;DHT22;8679;50.842;4.322;2023-07-24T09:45:53;18.10;99.90
17128;DHT22;8679;50.842;4.322;2023-07-24T09:48:21;18.00;99.90
17128;DHT22;8679;50.842;4.322;2023-07-24T09:50:49;18.10;99.90
17128;DHT22;8679;50.842;4.322;2023-07-24T09:53:20;18.20;99.90
17128;DHT22;8679;50.842;4.322;2023-07-24T09:56:04;18.20;99.90
17128;DHT22;8679;50.842;4.322;2023-07-24T09:58:32;18.20;99.90
17128;DHT22;8679;50.842;4.322;2023-07-24T10:01:01;18.10;99.90
17128;DHT22;8679;50.842;4.322;2023-07-24T10:03:27;18.00;99.90
17128;DHT22;8679;50.842;4.322;2023-07-24T10:05:53;18.00;99.90
17128;DHT22;8679;50.842;4.322;2023-07-24T10:08:19;18.20;99.90
17128;DHT22;8679;50.842;4.322;2023-07-24T10:10:45;18.20;99.90
17128;DHT22;8679;50.842;4.322;2023-07-24T10:13:12;18.40;99.90
17128;DHT22;8679;50.842;4.322;2023-07-24T10:15:41;18.60;99.90
17128;DHT22;8679;50.842;4.322;2023-07-24T10:18:08;18.90;99.90
17128;DHT22;8679;50.842;4.322;2023-07-24T10:20:39;19.10;99.90
17128;DHT22;8679;50.842;4.322;2023-07-24T10:23:08;19.10;99.90
17128;DHT22;8679;50.842;4.322;2023-07-24T10:25:35;19.00;99.90
17128;DHT22;8679;50.842;4.322;2023-07-24T10:28:03;19.10;99.90
17128;DHT22;8679;50.842;4.322;2023-07-24T10:30:33;19.40;99.90
17128;DHT22;8679;50.842;4.322;2023-07-24T10:33:12;19.50;99.90
17128;DHT22;8679;50.842;4.322;2023-07-24T10:35:46;19.60;99.90
17128;DHT22;8679;50.842;4.322;2023-07-24T10:38:14;19.60;99.90
17128;DHT22;8679;50.842;4.322;2023-07-24T10:40:41;19.70;99.90
17128;DHT22;8679;50.842;4.322;2023-07-24T10:43:11;19.80;99.90
17128;DHT22;8679;50.842;4.322;2023-07-24T10:45:51;20.00;99.90
17128;DHT22;8679;50.842;4.322;2023-07-24T10:48:18;20.00;99.90
17128;DHT22;8679;50.842;4.322;2023-07-24T10:50:46;20.00;99.90
17128;DHT22;8679;50.842;4.322;2023-07-24T10:53:14;19.90;99.90
17128;DHT22;8679;50.842;4.322;2023-07-24T10:55:44;20.10;99.90
17128;DHT22;8679;50.842;4.322;2023-07-24T10:58:15;20.10;99.90
17128;DHT22;8679;50.842;4.322;2023-07-24T11:00:52;19.90;99.90
17128;DHT22;8679;50.842;4.322;2023-07-24T11:03:22;19.90;99.90
17128;DHT22;8679;50.842;4.322;2023-07-24T11:05:47;19.90;99.90
17128;DHT22;8679;50.842;4.322;2023-07-24T11:08:15;19.70;99.90
17128;DHT22;8679;50.842;4.322;2023-07-24T11:10:54;19.50;99.90
17128;DHT22;8679;50.842;4.322;2023-07-24T11:13:26;19.50;99.90
17128;DHT22;8679;50.842;4.322;2023-07-24T11:15:52;19.50;99.90
17128;DHT22;8679;50.842;4.322;2023-07-24T11:18:22;19.50;99.90
17128;DHT22;8679;50.842;4.322;2023-07-24T11:20:54;19.60;99.90
17128;DHT22;8679;50.842;4.322;2023-07-24T11:23:21;19.70;99.90
17128;DHT22;8679;50.842;4.322;2023-07-24T11:25:50;19.80;99.90
17128;DHT22;8679;50.842;4.322;2023-07-24T11:28:16;20.10;99.90
17128;DHT22;8679;50.842;4.322;2023-07-24T11:30:42;20.20;99.90
17128;DHT22;8679;50.842;4.322;2023-07-24T11:33:13;20.40;99.90
17128;DHT22;8679;50.842;4.322;2023-07-24T11:35:40;20.40;99.90
17128;DHT22;8679;50.842;4.322;2023-07-24T11:38:08;20.30;99.90
17128;DHT22;8679;50.842;4.322;2023-07-24T11:40:41;20.40;99.90
17128;DHT22;8679;50.842;4.322;2023-07-24T11:43:19;20.60;99.90
17128;DHT22;8679;50.842;4.322;2023-07-24T11:45:46;20.50;99.90
17128;DHT22;8679;50.842;4.322;2023-07-24T11:48:18;20.50;99.90
17128;DHT22;8679;50.842;4.322;2023-07-24T11:50:55;20.50;99.90
17128;DHT22;8679;50.842;4.322;2023-07-24T11:53:31;20.40;99.90
17128;DHT22;8679;50.842;4.322;2023-07-24T11:55:58;20.30;99.90
17128;DHT22;8679;50.842;4.322;2023-07-24T11:58:28;20.40;99.90
17128;DHT22;8679;50.842;4.322;2023-07-24T12:00:54;20.50;86.80
17128;DHT22;8679;50.842;4.322;2023-07-24T12:03:24;20.60;81.20
17128;DHT22;8679;50.842;4.322;2023-07-24T12:05:53;21.00;16.50
17128;DHT22;8679;50.842;4.322;2023-07-24T12:08:35;21.20;1.00
17128;DHT22;8679;50.842;4.322;2023-07-24T12:11:02;21.10;21.00
17128;DHT22;8679;50.842;4.322;2023-07-24T12:13:28;21.30;97.90
17128;DHT22;8679;50.842;4.322;2023-07-24T12:15:57;21.40;1.00
17128;DHT22;8679;50.842;4.322;2023-07-24T12:18:24;21.40;1.00
17128;DHT22;8679;50.842;4.322;2023-07-24T12:20:49;21.30;1.00
17128;DHT22;8679;50.842;4.322;2023-07-24T12:23:15;21.30;1.00
17128;DHT22;8679;50.842;4.322;2023-07-24T12:25:42;21.20;1.00
17128;DHT22;8679;50.842;4.322;2023-07-24T12:28:08;21.20;1.00
17128;DHT22;8679;50.842;4.322;2023-07-24T12:30:33;21.00;1.00
17128;DHT22;8679;50.842;4.322;2023-07-24T12:32:59;20.90;1.00
17128;DHT22;8679;50.842;4.322;2023-07-24T12:35:24;20.90;1.00
17128;DHT22;8679;50.842;4.322;2023-07-24T12:37:50;20.80;1.00
17128;DHT22;8679;50.842;4.322;2023-07-24T12:40:16;20.70;1.00
17128;DHT22;8679;50.842;4.322;2023-07-24T12:42:41;20.60;1.00
17128;DHT22;8679;50.842;4.322;2023-07-24T12:45:07;20.70;1.00
17128;DHT22;8679;50.842;4.322;2023-07-24T12:47:33;20.80;1.00
17128;DHT22;8679;50.842;4.322;2023-07-24T12:50:00;20.80;1.00
17128;DHT22;8679;50.842;4.322;2023-07-24T12:52:26;20.90;1.00
17128;DHT22;8679;50.842;4.322;2023-07-24T12:54:52;20.90;1.00
17128;DHT22;8679;50.842;4.322;2023-07-24T12:57:17;20.80;4.00
17128;DHT22;8679;50.842;4.322;2023-07-24T12:59:43;20.80;38.00
17128;DHT22;8679;50.842;4.322;2023-07-24T13:02:09;20.90;30.70
17128;DHT22;8679;50.842;4.322;2023-07-24T13:04:34;20.80;1.00
17128;DHT22;8679;50.842;4.322;2023-07-24T13:07:00;20.90;50.30
17128;DHT22;8679;50.842;4.322;2023-07-24T13:09:27;21.00;1.00
17128;DHT22;8679;50.842;4.322;2023-07-24T13:11:53;21.10;1.00
17128;DHT22;8679;50.842;4.322;2023-07-24T13:14:20;21.00;1.00
17128;DHT22;8679;50.842;4.322;2023-07-24T13:16:46;20.90;1.00
17128;DHT22;8679;50.842;4.322;2023-07-24T13:19:12;20.80;2.10
17128;DHT22;8679;50.842;4.322;2023-07-24T13:21:38;20.80;1.00
17128;DHT22;8679;50.842;4.322;2023-07-24T13:24:06;20.90;1.00
17128;DHT22;8679;50.842;4.322;2023-07-24T13:26:33;21.00;1.00
17128;DHT22;8679;50.842;4.322;2023-07-24T13:29:02;21.10;1.00
17128;DHT22;8679;50.842;4.322;2023-07-24T13:31:28;21.20;1.00
17128;DHT22;8679;50.842;4.322;2023-07-24T13:33:54;21.10;1.00
17128;DHT22;8679;50.842;4.322;2023-07-24T13:36:20;20.80;1.00
17128;DHT22;8679;50.842;4.322;2023-07-24T13:38:46;20.80;73.00
17128;DHT22;8679;50.842;4.322;2023-07-24T13:41:13;20.90;31.20
17128;DHT22;8679;50.842;4.322;2023-07-24T13:43:39;21.10;44.10
17128;DHT22;8679;50.842;4.322;2023-07-24T13:46:07;21.10;1.00
17128;DHT22;8679;50.842;4.322;2023-07-24T13:48:34;21.30;1.00
17128;DHT22;8679;50.842;4.322;2023-07-24T13:51:03;21.30;1.00
17128;DHT22;8679;50.842;4.322;2023-07-24T13:53:29;21.50;1.00
17128;DHT22;8679;50.842;4.322;2023-07-24T13:55:58;21.70;1.00
17128;DHT22;8679;50.842;4.322;2023-07-24T13:58:24;21.60;1.00
17128;DHT22;8679;50.842;4.322;2023-07-24T14:00:50;21.50;1.00
17128;DHT22;8679;50.842;4.322;2023-07-24T14:03:16;21.30;1.00
17128;DHT22;8679;50.842;4.322;2023-07-24T14:05:42;21.30;1.00
17128;DHT22;8679;50.842;4.322;2023-07-24T14:08:08;21.30;1.00
17128;DHT22;8679;50.842;4.322;2023-07-24T14:10:34;21.60;1.00
17128;DHT22;8679;50.842;4.322;2023-07-24T14:13:00;21.90;1.00
17128;DHT22;8679;50.842;4.322;2023-07-24T14:15:27;22.50;99.90
17128;DHT22;8679;50.842;4.322;2023-07-24T14:17:53;22.90;99.90
17128;DHT22;8679;50.842;4.322;2023-07-24T14:20:19;23.10;1.00
17128;DHT22;8679;50.842;4.322;2023-07-24T14:22:45;22.80;1.00
17128;DHT22;8679;50.842;4.322;2023-07-24T14:25:11;22.50;99.90
17128;DHT22;8679;50.842;4.322;2023-07-24T14:27:37;22.70;1.00
17128;DHT22;8679;50.842;4.322;2023-07-24T14:30:03;23.20;99.90
17128;DHT22;8679;50.842;4.322;2023-07-24T14:32:29;23.20;1.00
17128;DHT22;8679;50.842;4.322;2023-07-24T14:34:55;23.40;1.00
17128;DHT22;8679;50.842;4.322;2023-07-24T14:37:21;23.60;99.90
17128;DHT22;8679;50.842;4.322;2023-07-24T14:39:47;24.00;99.90
17128;DHT22;8679;50.842;4.322;2023-07-24T14:42:13;24.30;1.00
17128;DHT22;8679;50.842;4.322;2023-07-24T14:44:39;24.40;1.00
17128;DHT22;8679;50.842;4.322;2023-07-24T14:47:05;24.20;1.00
17128;DHT22;8679;50.842;4.322;2023-07-24T14:49:32;23.20;1.00
17128;DHT22;8679;50.842;4.322;2023-07-24T14:51:58;22.40;1.00
17128;DHT22;8679;50.842;4.322;2023-07-24T14:54:24;21.80;99.90
17128;DHT22;8679;50.842;4.322;2023-07-24T14:56:50;21.10;99.90
17128;DHT22;8679;50.842;4.322;2023-07-24T14:59:16;20.80;1.00
17128;DHT22;8679;50.842;4.322;2023-07-24T15:01:42;20.50;1.00
17128;DHT22;8679;50.842;4.322;2023-07-24T15:04:08;19.90;99.90
17128;DHT22;8679;50.842;4.322;2023-07-24T15:06:34;19.50;99.90
17128;DHT22;8679;50.842;4.322;2023-07-24T15:08:59;19.00;1.00
17128;DHT22;8679;50.842;4.322;2023-07-24T15:11:28;18.80;1.00
17128;DHT22;8679;50.842;4.322;2023-07-24T15:13:54;18.50;99.90
17128;DHT22;8679;50.842;4.322;2023-07-24T15:16:22;18.30;99.90
17128;DHT22;8679;50.842;4.322;2023-07-24T15:18:48;18.00;99.90
17128;DHT22;8679;50.842;4.322;2023-07-24T15:21:14;18.00;99.90
17128;DHT22;8679;50.842;4.322;2023-07-24T15:23:40;17.80;99.90
17128;DHT22;8679;50.842;4.322;2023-07-24T15:26:06;17.90;99.90
17128;DHT22;8679;50.842;4.322;2023-07-24T15:28:31;17.90;99.90
17128;DHT22;8679;50.842;4.322;2023-07-24T15:30:57;17.90;99.90
17128;DHT22;8679;50.842;4.322;2023-07-24T15:33:23;18.00;99.90
17128;DHT22;8679;50.842;4.322;2023-07-24T15:35:49;18.10;99.90
17128;DHT22;8679;50.842;4.322;2023-07-24T15:38:15;18.20;99.90
17128;DHT22;8679;50.842;4.322;2023-07-24T15:40:40;18.30;99.90
17128;DHT22;8679;50.842;4.322;2023-07-24T15:43:07;18.70;99.90
17128;DHT22;8679;50.842;4.322;2023-07-24T15:45:33;19.30;1.00
17128;DHT22;8679;50.842;4.322;2023-07-24T15:47:58;20.30;1.00
17128;DHT22;8679;50.842;4.322;2023-07-24T15:50:24;20.60;1.00